Weather History for KBKD - March, 2013

Change the Weather History Date:

Sunday, March 31, 2013

  Actual Average (KABI) Record (KABI)
Temperature  
Mean Temperature 71 °F 60 °F  
Max Temperature 79 °F 73 °F 97 °F (1974)
Min Temperature 63 °F 48 °F 27 °F (1926)
Degree Days  
Heating Degree Days 0 6  
Month to date heating degree days 298  
Since 1 July heating degree days 2431  
Cooling Degree Days 6 2  
Month to date cooling degree days 29  
Year to date cooling degree days 34  
Growing Degree Days 21 (Base 50)    
Moisture  
Dew Point 51 °F    
Average Humidity 51    
Maximum Humidity 78    
Minimum Humidity 29    
Precipitation  
Precipitation 0.00 in 0.05 in 0.93 in (1916)
Month to date precipitation 1.74  
Year to date precipitation 4.12  
Sea Level Pressure  
Sea Level Pressure 29.94 in    
Wind  
Wind Speed 10 mph (ENE)    
Max Wind Speed 23 mph    
Max Gust Speed 40 mph    
Visibility 10 miles    
Events      
T = Trace of Precipitation, MM = Missing Value Source: NWS Daily Summary

Daily Weather History Graph

Daily Weather History Graph

Search for Another Location

Airport or City:

Trip Planner

Search our weather history database for the weather conditions in past years. The results will help you decide how hot, cold, wet, or windy it might be!

Date:

Astronomy

Mar. 31, 2013 Rise Set
Actual Time 7:24 AM CDT 7:55 PM CDT
Civil Twilight 6:59 AM CDT 8:19 PM CDT
Nautical Twilight 6:30 AM CDT 8:49 PM CDT
Astronomical Twilight 6:01 AM CDT 9:18 PM CDT
Moon No Moon Rise 10:27 AM CDT (3/31)
Length of Visible Light 13h 20m
Length of Day
12h 30m
Waning Gibbous, 77% of the Moon is Illuminated
Mar 31
Waning Gibbous
Apr 2
Last Quarter
Apr 10
New
Apr 18
First Quarter
Apr 25
Full

Hourly Weather History & Observations

Time (CDT) Temp. Dew Point Humidity Pressure Visibility Wind Dir Wind Speed Gust Speed Precip Events Conditions
12:15 AM 70.0 °F 56.8 °F 63% 29.88 in 10.0 mi South 4.6 mph - N/A   Clear
12:35 AM 69.8 °F 57.4 °F 65% 29.88 in 10.0 mi SSW 8.1 mph - N/A   Clear
12:55 AM 71.6 °F 58.1 °F 62% 29.88 in 10.0 mi South 11.5 mph - N/A   Clear
1:15 AM 71.6 °F 58.1 °F 62% 29.87 in 10.0 mi South 11.5 mph - N/A   Clear
1:35 AM 71.1 °F 58.3 °F 64% 29.87 in 10.0 mi South 11.5 mph - N/A   Clear
1:55 AM 70.7 °F 58.5 °F 65% 29.88 in 10.0 mi South 10.4 mph - N/A   Clear
2:15 AM 70.7 °F 58.5 °F 65% 29.87 in 10.0 mi South 10.4 mph - N/A   Clear
2:35 AM 70.2 °F 58.5 °F 66% 29.86 in 10.0 mi South 8.1 mph - N/A   Clear
2:55 AM 70.0 °F 58.3 °F 66% 29.85 in 10.0 mi South 9.2 mph - N/A   Clear
3:15 AM 70.0 °F 58.3 °F 66% 29.84 in 10.0 mi South 11.5 mph - N/A   Clear
3:35 AM 69.8 °F 58.3 °F 67% 29.84 in 10.0 mi South 11.5 mph - N/A   Clear
3:55 AM 69.3 °F 58.3 °F 68% 29.82 in 10.0 mi South 12.7 mph - N/A   Clear
4:15 AM 69.6 °F 58.1 °F 67% 29.82 in 10.0 mi South 9.2 mph - N/A   Clear
4:35 AM 69.1 °F 58.1 °F 68% 29.81 in 10.0 mi South 11.5 mph - N/A   Clear
4:55 AM 69.8 °F 58.1 °F 66% 29.81 in 10.0 mi South 10.4 mph 20.7 mph N/A   Clear
5:15 AM 69.8 °F 58.1 °F 66% 29.81 in 10.0 mi South 9.2 mph - N/A   Clear
5:35 AM 69.4 °F 58.1 °F 67% 29.81 in 10.0 mi SSW 10.4 mph 16.1 mph N/A   Clear
5:55 AM 69.1 °F 58.1 °F 68% 29.81 in 10.0 mi SW 10.4 mph - N/A   Clear
6:15 AM 69.8 °F 57.9 °F 66% 29.81 in 10.0 mi SW 10.4 mph 16.1 mph N/A   Clear
6:35 AM 70.0 °F 57.7 °F 65% 29.81 in 10.0 mi SW 11.5 mph - N/A   Clear
6:55 AM 69.8 °F 57.7 °F 65% 29.88 in 10.0 mi NNW 23.0 mph 40.3 mph N/A   Scattered Clouds
7:15 AM 71.4 °F 55.4 °F 57% 29.88 in 10.0 mi NNW 18.4 mph 26.5 mph N/A   Scattered Clouds
7:35 AM 67.5 °F 57.9 °F 71% 29.90 in 10.0 mi NNE 18.4 mph - N/A   Clear
7:55 AM 65.3 °F 58.3 °F 78% 29.93 in 10.0 mi NNE 13.8 mph 28.8 mph N/A   Mostly Cloudy
8:15 AM 64.4 °F 56.3 °F 75% 29.95 in 10.0 mi NE 20.7 mph 28.8 mph N/A   Mostly Cloudy
8:35 AM 63.3 °F 52.7 °F 68% 29.98 in 10.0 mi NE 19.6 mph 29.9 mph N/A   Scattered Clouds
8:55 AM 64.0 °F 52.5 °F 66% 30.00 in 10.0 mi NE 21.9 mph 28.8 mph N/A   Mostly Cloudy
9:15 AM 63.9 °F 52.7 °F 67% 30.01 in 10.0 mi NE 20.7 mph 26.5 mph N/A   Overcast
9:35 AM 65.3 °F 52.9 °F 64% 30.02 in 10.0 mi ENE 17.3 mph 26.5 mph N/A   Overcast
9:55 AM 66.2 °F 52.5 °F 61% 30.02 in 10.0 mi ENE 17.3 mph 23.0 mph N/A   Scattered Clouds
10:15 AM 67.6 °F 51.8 °F 57% 30.00 in 10.0 mi East 16.1 mph - N/A   Clear
10:35 AM 68.9 °F 50.4 °F 52% 30.01 in 10.0 mi East 13.8 mph 24.2 mph N/A   Clear
10:55 AM 70.0 °F 50.9 °F 51% 30.02 in 10.0 mi East 15.0 mph 19.6 mph N/A   Clear
11:15 AM 70.9 °F 49.5 °F 47% 30.02 in 10.0 mi ENE 15.0 mph 23.0 mph N/A   Clear
11:35 AM 72.3 °F 49.1 °F 44% 30.03 in 10.0 mi ENE 15.0 mph 21.9 mph N/A   Clear
11:55 AM 72.9 °F 48.4 °F 42% 30.02 in 10.0 mi ENE 8.1 mph 23.0 mph N/A   Clear
12:15 PM 73.9 °F 48.6 °F 41% 30.02 in 10.0 mi East 9.2 mph 19.6 mph N/A   Clear
12:35 PM 74.3 °F 47.7 °F 39% 30.02 in 10.0 mi ENE 10.4 mph 18.4 mph N/A   Clear
12:55 PM 75.0 °F 47.3 °F 37% 30.02 in 10.0 mi NNE 10.4 mph 16.1 mph N/A   Clear
1:15 PM 75.6 °F 47.8 °F 37% 30.01 in 10.0 mi NNE 4.6 mph - N/A   Clear
1:35 PM 76.3 °F 48.6 °F 38% 30.00 in 10.0 mi East 9.2 mph 16.1 mph N/A   Clear
1:55 PM 77.5 °F 47.1 °F 34% 29.99 in 10.0 mi North 8.1 mph 21.9 mph N/A   Clear
2:15 PM 77.9 °F 46.4 °F 33% 29.98 in 10.0 mi East 9.2 mph 17.3 mph N/A   Scattered Clouds
2:35 PM 77.9 °F 45.9 °F 32% 29.98 in 10.0 mi ENE 9.2 mph 17.3 mph N/A   Clear
2:55 PM 78.8 °F 46.0 °F 31% 29.97 in 10.0 mi East 8.1 mph - N/A   Clear
3:15 PM 77.9 °F 45.1 °F 31% 29.96 in 10.0 mi North 10.4 mph 19.6 mph N/A   Clear
3:35 PM 79.7 °F 44.6 °F 29% 29.96 in 10.0 mi NE 5.8 mph - N/A   Clear
3:55 PM 79.0 °F 44.1 °F 29% 29.96 in 10.0 mi NNW 11.5 mph 17.3 mph N/A   Clear
4:15 PM 78.8 °F 44.1 °F 29% 29.95 in 10.0 mi NE 4.6 mph 19.6 mph N/A   Scattered Clouds
4:35 PM 78.8 °F 45.1 °F 30% 29.94 in 10.0 mi North 12.7 mph 21.9 mph N/A   Clear
4:55 PM 79.3 °F 45.1 °F 30% 29.94 in 10.0 mi North 6.9 mph - N/A   Clear
5:15 PM 78.4 °F 44.4 °F 30% 29.94 in 10.0 mi NNE 9.2 mph 16.1 mph N/A   Clear
5:35 PM 77.9 °F 44.2 °F 30% 29.93 in 10.0 mi NE 11.5 mph - N/A   Clear
5:55 PM 77.7 °F 43.7 °F 30% 29.93 in 10.0 mi North 9.2 mph - N/A   Clear
6:15 PM 77.4 °F 43.3 °F 30% 29.93 in 10.0 mi North 8.1 mph - N/A   Clear
6:35 PM 76.8 °F 43.5 °F 30% 29.93 in 10.0 mi North 5.8 mph - N/A   Clear
6:55 PM 76.3 °F 43.7 °F 31% 29.93 in 10.0 mi North 6.9 mph - N/A   Clear
7:15 PM 75.4 °F 44.4 °F 33% 29.94 in 10.0 mi NNE 9.2 mph - N/A   Clear
7:35 PM 74.3 °F 44.6 °F 35% 29.95 in 10.0 mi NNE 6.9 mph - N/A   Clear
8:15 PM 71.2 °F 45.9 °F 40% 29.96 in 10.0 mi NNE 6.9 mph - N/A   Clear
8:35 PM 70.2 °F 46.0 °F 42% 29.97 in 10.0 mi NNE 5.8 mph - N/A   Clear
8:55 PM 69.1 °F 46.4 °F 44% 29.97 in 10.0 mi NNE 5.8 mph - N/A   Clear
9:15 PM 68.0 °F 46.4 °F 46% 29.98 in 10.0 mi NE 5.8 mph - N/A   Clear
9:35 PM 67.1 °F 46.4 °F 47% 29.99 in 10.0 mi NE 6.9 mph - N/A   Clear
9:55 PM 66.2 °F 46.0 °F 48% 30.00 in 10.0 mi NE 5.8 mph - N/A   Clear
10:15 PM 65.5 °F 46.0 °F 49% 30.01 in 10.0 mi NE 4.6 mph - N/A   Clear
10:35 PM 64.9 °F 45.9 °F 50% 30.01 in 10.0 mi ENE 3.5 mph - N/A   Clear
10:55 PM 64.6 °F 45.5 °F 50% 30.01 in 10.0 mi ENE 3.5 mph - N/A   Clear
11:15 PM 63.9 °F 45.5 °F 51% 30.01 in 10.0 mi Calm Calm - N/A   Clear